createdAt,value
2017-08-29T00:01:16.586Z,19.00
2017-08-29T00:06:19.215Z,19.00
2017-08-29T00:11:21.835Z,19.00
2017-08-29T00:16:24.433Z,19.00
2017-08-29T00:21:27.055Z,18.90
2017-08-29T00:26:30.437Z,18.90
2017-08-29T00:31:33.066Z,18.90
2017-08-29T00:36:35.666Z,18.90
2017-08-29T00:41:38.296Z,18.90
2017-08-29T00:46:40.963Z,18.90
2017-08-29T00:51:43.566Z,18.80
2017-08-29T00:56:46.162Z,18.80
2017-08-29T01:01:49.487Z,18.80
2017-08-29T01:06:52.098Z,18.80
2017-08-29T01:11:55.478Z,18.70
2017-08-29T01:16:58.081Z,18.70
2017-08-29T01:22:00.823Z,18.70
2017-08-29T01:27:04.230Z,18.70
2017-08-29T01:32:06.859Z,18.70
2017-08-29T01:37:10.121Z,18.70
2017-08-29T01:42:12.759Z,18.70
2017-08-29T01:47:15.409Z,18.70
2017-08-29T01:52:18.017Z,18.60
2017-08-29T01:57:20.623Z,18.60
2017-08-29T02:02:23.223Z,18.60
2017-08-29T02:07:26.113Z,18.60
2017-08-29T02:12:28.734Z,18.50
2017-08-29T02:17:31.345Z,18.50
2017-08-29T02:22:33.949Z,18.50
2017-08-29T02:27:36.575Z,18.40
2017-08-29T02:32:39.191Z,18.40
2017-08-29T02:37:41.791Z,18.40
2017-08-29T02:42:44.426Z,18.30
2017-08-29T02:47:47.046Z,18.30
2017-08-29T02:52:49.699Z,18.20
2017-08-29T02:57:52.319Z,18.20
2017-08-29T03:02:54.942Z,18.20
2017-08-29T03:07:57.571Z,18.10
2017-08-29T03:13:00.199Z,18.10
2017-08-29T03:18:02.830Z,18.00
2017-08-29T03:23:05.489Z,18.00
2017-08-29T03:28:08.105Z,18.00
2017-08-29T03:33:10.725Z,17.90
2017-08-29T03:38:13.355Z,17.90
2017-08-29T03:43:15.966Z,17.90
2017-08-29T03:48:19.443Z,17.90
2017-08-29T03:53:22.070Z,17.80
2017-08-29T03:58:24.705Z,17.80
2017-08-29T04:03:27.354Z,17.80
2017-08-29T04:08:29.954Z,17.70
2017-08-29T04:13:32.560Z,17.70
2017-08-29T04:18:35.186Z,17.70
2017-08-29T04:23:37.791Z,17.60
2017-08-29T04:28:40.407Z,17.60
2017-08-29T04:33:43.028Z,17.60
2017-08-29T04:38:45.665Z,17.50
2017-08-29T04:43:48.325Z,17.50
2017-08-29T04:48:50.967Z,17.50
2017-08-29T04:53:53.581Z,17.50
2017-08-29T04:58:56.174Z,17.50
2017-08-29T05:03:58.782Z,17.50
2017-08-29T05:09:01.370Z,17.50
2017-08-29T05:14:04.007Z,17.50
2017-08-29T05:19:06.634Z,17.50
2017-08-29T05:24:09.339Z,17.50
2017-08-29T05:29:11.969Z,17.60
2017-08-29T05:34:15.838Z,17.60
2017-08-29T05:39:18.449Z,17.70
2017-08-29T05:44:21.047Z,17.70
2017-08-29T05:49:23.669Z,17.80
2017-08-29T05:54:26.293Z,17.90
2017-08-29T05:59:29.764Z,18.10
2017-08-29T06:04:32.990Z,18.10
2017-08-29T06:09:35.583Z,18.30
2017-08-29T06:14:38.194Z,18.50
2017-08-29T06:19:40.810Z,18.70
2017-08-29T06:24:43.414Z,18.90
2017-08-29T06:29:45.997Z,19.10
2017-08-29T06:34:49.391Z,19.50
2017-08-29T06:39:52.149Z,19.40
2017-08-29T06:44:54.748Z,19.70
2017-08-29T06:49:57.379Z,19.90
2017-08-29T06:54:59.987Z,20.10
2017-08-29T07:00:02.614Z,20.30
2017-08-29T07:05:05.286Z,20.50
2017-08-29T07:10:07.977Z,20.90
2017-08-29T07:15:10.585Z,21.10
2017-08-29T07:20:13.190Z,21.30
2017-08-29T07:25:16.900Z,21.60
2017-08-29T07:30:19.627Z,21.80
2017-08-29T07:35:22.247Z,22.10
2017-08-29T07:40:27.588Z,22.30
2017-08-29T07:45:30.202Z,22.60
2017-08-29T07:50:32.809Z,22.90
2017-08-29T07:55:36.983Z,23.20
2017-08-29T08:00:39.630Z,23.40
2017-08-29T08:05:42.255Z,23.60
2017-08-29T08:10:44.877Z,23.90
2017-08-29T08:15:47.523Z,24.20
2017-08-29T08:20:50.145Z,24.40
2017-08-29T08:25:52.798Z,24.60
2017-08-29T08:30:55.409Z,24.80
2017-08-29T08:35:58.083Z,25.10
2017-08-29T08:41:00.684Z,25.30
2017-08-29T08:46:03.300Z,25.60
2017-08-29T08:51:14.469Z,25.80
2017-08-29T08:56:17.365Z,26.00
2017-08-29T09:01:19.967Z,26.30
2017-08-29T09:06:22.581Z,26.40
2017-08-29T09:11:25.202Z,26.60
2017-08-29T09:16:27.851Z,26.70
2017-08-29T09:21:30.558Z,27.00
2017-08-29T09:26:33.205Z,27.20
2017-08-29T09:31:35.957Z,27.40
2017-08-29T09:36:38.596Z,27.50
2017-08-29T09:41:41.221Z,27.70
2017-08-29T09:46:44.603Z,28.10
2017-08-29T09:51:48.474Z,28.00
2017-08-29T09:56:51.085Z,28.20
2017-08-29T10:01:53.678Z,28.30
2017-08-29T10:06:56.265Z,28.50
2017-08-29T10:11:59.626Z,28.60
2017-08-29T10:17:02.246Z,28.60
2017-08-29T10:22:05.087Z,28.70
2017-08-29T10:27:07.710Z,29.00
2017-08-29T10:32:10.385Z,29.10
2017-08-29T10:37:13.029Z,29.30
2017-08-29T10:42:15.639Z,29.40
2017-08-29T10:47:18.287Z,29.50
2017-08-29T10:52:21.750Z,29.80
2017-08-29T10:57:24.472Z,29.70
2017-08-29T11:02:27.131Z,29.80
2017-08-29T11:07:29.787Z,30.00
2017-08-29T11:12:32.434Z,30.20
2017-08-29T11:17:37.085Z,30.30
2017-08-29T11:22:39.774Z,30.40
2017-08-29T11:27:42.438Z,30.60
2017-08-29T11:32:45.063Z,30.70
2017-08-29T11:37:47.677Z,30.80
2017-08-29T11:42:50.281Z,30.90
2017-08-29T11:47:52.909Z,30.90
2017-08-29T11:52:55.513Z,31.00
2017-08-29T11:57:58.113Z,31.10
2017-08-29T12:03:00.719Z,31.20
2017-08-29T12:08:03.349Z,31.20
2017-08-29T12:13:05.962Z,31.30
2017-08-29T12:18:08.555Z,31.30
2017-08-29T12:23:11.156Z,31.40
2017-08-29T12:28:13.754Z,31.40
2017-08-29T12:33:16.365Z,31.50
2017-08-29T12:38:18.970Z,31.50
2017-08-29T12:43:21.628Z,31.50
2017-08-29T12:48:25.073Z,31.50
2017-08-29T12:53:27.684Z,31.50
2017-08-29T12:58:30.312Z,31.50
2017-08-29T13:03:32.918Z,31.60
2017-08-29T13:08:35.524Z,31.60
2017-08-29T13:13:38.154Z,31.60
2017-08-29T13:18:40.763Z,31.60
2017-08-29T13:23:43.374Z,31.60
2017-08-29T13:28:46.009Z,31.60
2017-08-29T13:33:48.622Z,31.60
2017-08-29T13:38:51.242Z,31.50
2017-08-29T13:43:53.857Z,31.60
2017-08-29T13:48:56.470Z,31.60
2017-08-29T13:53:59.097Z,31.60
2017-08-29T13:59:01.710Z,31.50
2017-08-29T14:04:04.312Z,31.50
2017-08-29T14:09:06.905Z,31.40
2017-08-29T14:14:09.497Z,31.50
2017-08-29T14:19:12.150Z,31.40
2017-08-29T14:24:14.758Z,31.40
2017-08-29T14:29:17.356Z,31.30
2017-08-29T14:34:19.978Z,31.30
2017-08-29T14:39:22.576Z,31.20
2017-08-29T14:44:25.201Z,31.20
2017-08-29T14:49:27.840Z,31.10
2017-08-29T14:54:30.450Z,31.00
2017-08-29T14:59:33.080Z,30.90
2017-08-29T15:04:35.691Z,30.80
2017-08-29T15:09:38.282Z,30.70
2017-08-29T15:14:41.443Z,30.60
2017-08-29T15:19:44.060Z,30.50
2017-08-29T15:24:46.699Z,30.40
2017-08-29T15:29:49.329Z,30.30
2017-08-29T15:34:51.931Z,30.20
2017-08-29T15:39:54.541Z,30.10
2017-08-29T15:44:57.150Z,30.00
2017-08-29T15:49:59.774Z,29.80
2017-08-29T15:55:02.394Z,29.70
2017-08-29T16:00:05.009Z,29.70
2017-08-29T16:05:07.598Z,29.50
2017-08-29T16:10:10.231Z,29.40
2017-08-29T16:15:12.842Z,29.30
2017-08-29T16:20:15.718Z,29.20
2017-08-29T16:25:18.305Z,29.10
2017-08-29T16:30:20.958Z,29.10
2017-08-29T16:35:23.609Z,29.00
2017-08-29T16:40:26.202Z,28.90
2017-08-29T16:45:28.852Z,28.70
2017-08-29T16:50:31.474Z,28.60
2017-08-29T16:55:34.086Z,28.50
2017-08-29T17:00:36.741Z,28.40
2017-08-29T17:05:39.321Z,28.30
2017-08-29T17:10:43.017Z,28.10
2017-08-29T17:15:45.609Z,28.00
2017-08-29T17:20:48.208Z,27.90
2017-08-29T17:25:50.844Z,27.70
2017-08-29T17:30:53.638Z,27.50
2017-08-29T17:35:56.312Z,27.40
2017-08-29T17:40:58.942Z,27.20
2017-08-29T17:46:01.549Z,27.00
2017-08-29T17:51:04.167Z,26.90
2017-08-29T17:56:06.776Z,26.70
2017-08-29T18:01:09.382Z,26.50
2017-08-29T18:06:11.986Z,26.40
2017-08-29T18:11:14.580Z,26.20
2017-08-29T18:16:17.166Z,26.10
2017-08-29T18:21:19.813Z,25.90
2017-08-29T18:26:22.422Z,25.70
2017-08-29T18:31:25.043Z,25.50
2017-08-29T18:36:27.679Z,25.40
2017-08-29T18:41:30.325Z,25.20
2017-08-29T18:46:32.967Z,25.00
2017-08-29T18:51:35.573Z,24.90
2017-08-29T18:56:38.193Z,24.70
2017-08-29T19:01:40.798Z,24.50
2017-08-29T19:06:43.412Z,24.40
2017-08-29T19:11:46.011Z,24.20
2017-08-29T19:16:48.642Z,24.00
2017-08-29T19:21:51.293Z,23.90
2017-08-29T19:26:53.905Z,23.70
2017-08-29T19:31:56.560Z,23.60
2017-08-29T19:36:59.159Z,23.50
2017-08-29T19:42:01.774Z,23.30
2017-08-29T19:47:04.394Z,23.20
2017-08-29T19:52:07.040Z,23.00
2017-08-29T19:57:09.667Z,22.90
2017-08-29T20:02:12.297Z,22.70
2017-08-29T20:07:14.894Z,22.60
2017-08-29T20:12:17.523Z,22.50
2017-08-29T20:17:20.106Z,22.30
2017-08-29T20:22:22.696Z,22.20
2017-08-29T20:27:25.302Z,22.10
2017-08-29T20:32:27.907Z,22.00
2017-08-29T20:37:30.518Z,21.90
2017-08-29T20:42:33.115Z,21.80
2017-08-29T20:47:35.741Z,21.60
2017-08-29T20:52:38.364Z,21.50
2017-08-29T20:57:41.750Z,21.30
2017-08-29T21:02:44.364Z,21.30
2017-08-29T21:07:46.954Z,21.20
2017-08-29T21:12:49.549Z,21.10
2017-08-29T21:17:52.146Z,21.00
2017-08-29T21:22:54.818Z,20.90
2017-08-29T21:27:57.435Z,20.80
2017-08-29T21:33:00.063Z,20.70
2017-08-29T21:38:02.649Z,20.60
2017-08-29T21:43:05.373Z,20.50
2017-08-29T21:48:08.012Z,20.40
2017-08-29T21:53:10.619Z,20.40
2017-08-29T21:58:13.209Z,20.30
2017-08-29T22:03:15.812Z,20.20
2017-08-29T22:08:18.431Z,20.10
2017-08-29T22:13:21.027Z,20.00
2017-08-29T22:18:23.654Z,19.90
2017-08-29T22:23:26.298Z,19.90
2017-08-29T22:28:28.934Z,19.80
2017-08-29T22:33:31.566Z,19.70
2017-08-29T22:38:34.165Z,19.60
2017-08-29T22:43:36.791Z,19.50
2017-08-29T22:48:39.385Z,19.50
2017-08-29T22:53:41.995Z,19.40
2017-08-29T22:58:44.598Z,19.30
2017-08-29T23:03:47.214Z,19.20
2017-08-29T23:08:49.853Z,19.10
2017-08-29T23:13:52.492Z,19.10
2017-08-29T23:18:55.121Z,19.00
2017-08-29T23:23:57.757Z,18.90
2017-08-29T23:29:00.361Z,18.90
2017-08-29T23:34:02.977Z,18.80
2017-08-29T23:39:05.576Z,18.70
2017-08-29T23:44:08.181Z,18.70
2017-08-29T23:49:10.781Z,18.60
2017-08-29T23:54:13.398Z,18.50
2017-08-29T23:59:16.017Z,18.50
